sensor_id;sensor_type;location;lat;lon;timestamp;P1;durP1;ratioP1;P2;durP2;ratioP2
56517;SDS011;42419;48.760;2.322;2023-03-23T00:02:25;1.77;;;1.60;;
56517;SDS011;42419;48.760;2.322;2023-03-23T00:04:57;2.07;;;1.87;;
56517;SDS011;42419;48.760;2.322;2023-03-23T00:07:25;2.47;;;1.53;;
56517;SDS011;42419;48.760;2.322;2023-03-23T00:09:52;1.93;;;1.30;;
56517;SDS011;42419;48.760;2.322;2023-03-23T00:12:19;1.87;;;1.37;;
56517;SDS011;42419;48.760;2.322;2023-03-23T00:14:54;2.20;;;1.40;;
56517;SDS011;42419;48.760;2.322;2023-03-23T00:17:20;2.70;;;1.80;;
56517;SDS011;42419;48.760;2.322;2023-03-23T00:19:45;2.33;;;1.50;;
56517;SDS011;42419;48.760;2.322;2023-03-23T00:22:14;1.77;;;1.30;;
56517;SDS011;42419;48.760;2.322;2023-03-23T00:24:41;1.70;;;1.50;;
56517;SDS011;42419;48.760;2.322;2023-03-23T00:27:07;1.33;;;1.23;;
56517;SDS011;42419;48.760;2.322;2023-03-23T00:29:34;2.50;;;1.47;;
56517;SDS011;42419;48.760;2.322;2023-03-23T00:32:00;2.07;;;1.87;;
56517;SDS011;42419;48.760;2.322;2023-03-23T00:34:26;1.50;;;1.33;;
56517;SDS011;42419;48.760;2.322;2023-03-23T00:36:57;1.70;;;1.40;;
56517;SDS011;42419;48.760;2.322;2023-03-23T00:39:23;1.77;;;1.30;;
56517;SDS011;42419;48.760;2.322;2023-03-23T00:41:52;3.70;;;1.50;;
56517;SDS011;42419;48.760;2.322;2023-03-23T00:44:19;2.93;;;1.60;;
56517;SDS011;42419;48.760;2.322;2023-03-23T00:46:48;1.30;;;1.10;;
56517;SDS011;42419;48.760;2.322;2023-03-23T00:49:18;1.80;;;1.50;;
56517;SDS011;42419;48.760;2.322;2023-03-23T00:51:45;1.67;;;1.30;;
56517;SDS011;42419;48.760;2.322;2023-03-23T00:54:10;1.60;;;1.20;;
56517;SDS011;42419;48.760;2.322;2023-03-23T00:56:36;1.97;;;1.40;;
56517;SDS011;42419;48.760;2.322;2023-03-23T00:59:04;1.60;;;1.30;;
56517;SDS011;42419;48.760;2.322;2023-03-23T01:01:30;1.60;;;1.40;;
56517;SDS011;42419;48.760;2.322;2023-03-23T01:03:57;1.70;;;1.40;;
56517;SDS011;42419;48.760;2.322;2023-03-23T01:06:26;1.43;;;1.20;;
56517;SDS011;42419;48.760;2.322;2023-03-23T01:08:52;1.90;;;1.70;;
56517;SDS011;42419;48.760;2.322;2023-03-23T01:11:18;1.40;;;1.30;;
56517;SDS011;42419;48.760;2.322;2023-03-23T01:13:44;1.60;;;1.30;;
56517;SDS011;42419;48.760;2.322;2023-03-23T01:16:10;1.53;;;1.23;;
56517;SDS011;42419;48.760;2.322;2023-03-23T01:18:36;2.43;;;1.43;;
56517;SDS011;42419;48.760;2.322;2023-03-23T01:21:03;1.50;;;1.40;;
56517;SDS011;42419;48.760;2.322;2023-03-23T01:23:33;1.93;;;1.50;;
56517;SDS011;42419;48.760;2.322;2023-03-23T01:26:06;1.67;;;1.50;;
56517;SDS011;42419;48.760;2.322;2023-03-23T01:28:33;2.20;;;1.43;;
56517;SDS011;42419;48.760;2.322;2023-03-23T01:31:00;1.87;;;1.40;;
56517;SDS011;42419;48.760;2.322;2023-03-23T01:33:31;1.83;;;1.47;;
56517;SDS011;42419;48.760;2.322;2023-03-23T01:35:57;1.83;;;1.50;;
56517;SDS011;42419;48.760;2.322;2023-03-23T01:38:23;1.80;;;1.30;;
56517;SDS011;42419;48.760;2.322;2023-03-23T01:40:48;1.87;;;1.33;;
56517;SDS011;42419;48.760;2.322;2023-03-23T01:43:15;1.53;;;1.13;;
56517;SDS011;42419;48.760;2.322;2023-03-23T01:45:41;2.60;;;1.57;;
56517;SDS011;42419;48.760;2.322;2023-03-23T01:48:09;1.70;;;1.27;;
56517;SDS011;42419;48.760;2.322;2023-03-23T01:50:42;1.40;;;1.10;;
56517;SDS011;42419;48.760;2.322;2023-03-23T01:53:14;1.93;;;1.40;;
56517;SDS011;42419;48.760;2.322;2023-03-23T01:55:41;1.63;;;1.33;;
56517;SDS011;42419;48.760;2.322;2023-03-23T01:58:09;1.40;;;1.13;;
56517;SDS011;42419;48.760;2.322;2023-03-23T02:00:36;1.30;;;1.20;;
56517;SDS011;42419;48.760;2.322;2023-03-23T02:03:05;1.67;;;1.20;;
56517;SDS011;42419;48.760;2.322;2023-03-23T02:05:34;2.77;;;1.47;;
56517;SDS011;42419;48.760;2.322;2023-03-23T02:08:03;1.57;;;1.23;;
56517;SDS011;42419;48.760;2.322;2023-03-23T02:10:31;1.70;;;1.30;;
56517;SDS011;42419;48.760;2.322;2023-03-23T02:12:58;3.83;;;1.30;;
56517;SDS011;42419;48.760;2.322;2023-03-23T02:15:26;1.20;;;1.03;;
56517;SDS011;42419;48.760;2.322;2023-03-23T02:17:58;1.33;;;1.10;;
56517;SDS011;42419;48.760;2.322;2023-03-23T02:26:29;1.60;;;1.40;;
56517;SDS011;42419;48.760;2.322;2023-03-23T02:29:06;1.60;;;1.20;;
56517;SDS011;42419;48.760;2.322;2023-03-23T02:31:59;2.43;;;1.30;;
56517;SDS011;42419;48.760;2.322;2023-03-23T02:34:35;1.97;;;1.40;;
56517;SDS011;42419;48.760;2.322;2023-03-23T02:37:11;1.37;;;1.10;;
56517;SDS011;42419;48.760;2.322;2023-03-23T02:39:46;2.33;;;1.20;;
56517;SDS011;42419;48.760;2.322;2023-03-23T02:42:17;1.60;;;1.50;;
56517;SDS011;42419;48.760;2.322;2023-03-23T02:44:48;1.80;;;1.30;;
56517;SDS011;42419;48.760;2.322;2023-03-23T02:47:19;1.00;;;0.90;;
56517;SDS011;42419;48.760;2.322;2023-03-23T02:49:48;2.00;;;1.20;;
56517;SDS011;42419;48.760;2.322;2023-03-23T02:52:19;1.40;;;1.20;;
56517;SDS011;42419;48.760;2.322;2023-03-23T02:54:49;2.40;;;1.10;;
56517;SDS011;42419;48.760;2.322;2023-03-23T02:57:16;1.70;;;1.30;;
56517;SDS011;42419;48.760;2.322;2023-03-23T02:59:42;1.57;;;1.10;;
56517;SDS011;42419;48.760;2.322;2023-03-23T03:02:17;1.67;;;1.00;;
56517;SDS011;42419;48.760;2.322;2023-03-23T03:04:48;1.17;;;0.97;;
56517;SDS011;42419;48.760;2.322;2023-03-23T03:07:30;2.33;;;1.40;;
56517;SDS011;42419;48.760;2.322;2023-03-23T03:10:48;1.73;;;1.10;;
56517;SDS011;42419;48.760;2.322;2023-03-23T03:15:44;1.83;;;1.17;;
56517;SDS011;42419;48.760;2.322;2023-03-23T03:18:20;1.60;;;1.30;;
56517;SDS011;42419;48.760;2.322;2023-03-23T03:20:51;1.33;;;1.23;;
56517;SDS011;42419;48.760;2.322;2023-03-23T03:23:22;1.30;;;0.97;;
56517;SDS011;42419;48.760;2.322;2023-03-23T03:25:48;1.20;;;1.00;;
56517;SDS011;42419;48.760;2.322;2023-03-23T03:28:16;1.73;;;1.23;;
56517;SDS011;42419;48.760;2.322;2023-03-23T03:30:47;1.63;;;1.00;;
56517;SDS011;42419;48.760;2.322;2023-03-23T03:33:19;1.30;;;1.07;;
56517;SDS011;42419;48.760;2.322;2023-03-23T03:35:45;1.57;;;1.17;;
56517;SDS011;42419;48.760;2.322;2023-03-23T03:38:11;1.77;;;1.10;;
56517;SDS011;42419;48.760;2.322;2023-03-23T03:40:36;1.40;;;1.00;;
56517;SDS011;42419;48.760;2.322;2023-03-23T03:43:03;1.33;;;1.10;;
56517;SDS011;42419;48.760;2.322;2023-03-23T03:45:29;1.23;;;1.00;;
56517;SDS011;42419;48.760;2.322;2023-03-23T03:47:55;1.67;;;1.03;;
56517;SDS011;42419;48.760;2.322;2023-03-23T03:50:20;1.10;;;1.00;;
56517;SDS011;42419;48.760;2.322;2023-03-23T03:52:46;1.10;;;0.90;;
56517;SDS011;42419;48.760;2.322;2023-03-23T03:55:12;1.20;;;0.97;;
56517;SDS011;42419;48.760;2.322;2023-03-23T03:57:37;1.27;;;0.90;;
56517;SDS011;42419;48.760;2.322;2023-03-23T04:00:03;1.20;;;1.00;;
56517;SDS011;42419;48.760;2.322;2023-03-23T04:02:40;1.53;;;1.23;;
56517;SDS011;42419;48.760;2.322;2023-03-23T04:05:06;1.20;;;1.10;;
56517;SDS011;42419;48.760;2.322;2023-03-23T04:07:33;2.20;;;1.10;;
56517;SDS011;42419;48.760;2.322;2023-03-23T04:10:03;1.30;;;1.00;;
56517;SDS011;42419;48.760;2.322;2023-03-23T04:12:30;2.00;;;1.17;;
56517;SDS011;42419;48.760;2.322;2023-03-23T04:14:56;1.93;;;1.37;;
56517;SDS011;42419;48.760;2.322;2023-03-23T04:17:22;1.50;;;1.10;;
56517;SDS011;42419;48.760;2.322;2023-03-23T04:19:47;1.30;;;1.07;;
56517;SDS011;42419;48.760;2.322;2023-03-23T04:22:12;1.27;;;1.10;;
56517;SDS011;42419;48.760;2.322;2023-03-23T04:24:38;1.27;;;0.80;;
56517;SDS011;42419;48.760;2.322;2023-03-23T04:27:03;1.30;;;1.00;;
56517;SDS011;42419;48.760;2.322;2023-03-23T04:29:28;1.50;;;1.03;;
56517;SDS011;42419;48.760;2.322;2023-03-23T04:31:53;1.33;;;1.00;;
56517;SDS011;42419;48.760;2.322;2023-03-23T04:34:20;1.50;;;1.13;;
56517;SDS011;42419;48.760;2.322;2023-03-23T04:36:46;1.33;;;1.13;;
56517;SDS011;42419;48.760;2.322;2023-03-23T04:39:12;1.23;;;1.00;;
56517;SDS011;42419;48.760;2.322;2023-03-23T04:41:38;1.50;;;1.17;;
56517;SDS011;42419;48.760;2.322;2023-03-23T04:44:05;1.83;;;0.90;;
56517;SDS011;42419;48.760;2.322;2023-03-23T04:46:31;2.00;;;1.13;;
56517;SDS011;42419;48.760;2.322;2023-03-23T04:48:57;2.00;;;1.17;;
56517;SDS011;42419;48.760;2.322;2023-03-23T04:51:27;1.57;;;1.00;;
56517;SDS011;42419;48.760;2.322;2023-03-23T04:53:53;1.43;;;1.33;;
56517;SDS011;42419;48.760;2.322;2023-03-23T04:56:19;1.10;;;1.00;;
56517;SDS011;42419;48.760;2.322;2023-03-23T04:58:45;1.20;;;0.93;;
56517;SDS011;42419;48.760;2.322;2023-03-23T05:01:11;1.87;;;1.07;;
56517;SDS011;42419;48.760;2.322;2023-03-23T05:03:40;1.50;;;1.10;;
56517;SDS011;42419;48.760;2.322;2023-03-23T05:06:06;1.50;;;1.10;;
56517;SDS011;42419;48.760;2.322;2023-03-23T05:08:31;1.73;;;1.10;;
56517;SDS011;42419;48.760;2.322;2023-03-23T05:10:58;1.83;;;1.20;;
56517;SDS011;42419;48.760;2.322;2023-03-23T05:13:25;1.77;;;1.20;;
56517;SDS011;42419;48.760;2.322;2023-03-23T05:15:52;1.67;;;1.17;;
56517;SDS011;42419;48.760;2.322;2023-03-23T05:18:18;1.63;;;1.10;;
56517;SDS011;42419;48.760;2.322;2023-03-23T05:20:45;1.40;;;1.03;;
56517;SDS011;42419;48.760;2.322;2023-03-23T05:23:11;1.60;;;1.07;;
56517;SDS011;42419;48.760;2.322;2023-03-23T05:25:37;1.13;;;1.03;;
56517;SDS011;42419;48.760;2.322;2023-03-23T05:28:08;1.50;;;1.00;;
56517;SDS011;42419;48.760;2.322;2023-03-23T05:30:36;1.30;;;1.13;;
56517;SDS011;42419;48.760;2.322;2023-03-23T05:33:03;1.87;;;1.30;;
56517;SDS011;42419;48.760;2.322;2023-03-23T05:35:29;1.37;;;1.17;;
56517;SDS011;42419;48.760;2.322;2023-03-23T05:37:54;1.80;;;1.10;;
56517;SDS011;42419;48.760;2.322;2023-03-23T05:40:20;1.87;;;1.10;;
56517;SDS011;42419;48.760;2.322;2023-03-23T05:42:47;1.43;;;1.20;;
56517;SDS011;42419;48.760;2.322;2023-03-23T05:45:12;1.50;;;1.10;;
56517;SDS011;42419;48.760;2.322;2023-03-23T05:47:39;1.50;;;0.90;;
56517;SDS011;42419;48.760;2.322;2023-03-23T05:50:06;1.30;;;1.10;;
56517;SDS011;42419;48.760;2.322;2023-03-23T05:52:33;1.30;;;1.10;;
56517;SDS011;42419;48.760;2.322;2023-03-23T05:55:00;1.43;;;1.00;;
56517;SDS011;42419;48.760;2.322;2023-03-23T05:57:26;2.13;;;1.30;;
56517;SDS011;42419;48.760;2.322;2023-03-23T05:59:52;1.30;;;1.10;;
56517;SDS011;42419;48.760;2.322;2023-03-23T06:02:18;1.40;;;1.00;;
56517;SDS011;42419;48.760;2.322;2023-03-23T06:04:43;1.40;;;1.17;;
56517;SDS011;42419;48.760;2.322;2023-03-23T06:07:09;1.30;;;1.10;;
56517;SDS011;42419;48.760;2.322;2023-03-23T06:09:39;1.47;;;1.30;;
56517;SDS011;42419;48.760;2.322;2023-03-23T06:12:06;2.87;;;1.00;;
56517;SDS011;42419;48.760;2.322;2023-03-23T06:14:32;1.20;;;1.07;;
56517;SDS011;42419;48.760;2.322;2023-03-23T06:16:58;1.40;;;1.10;;
56517;SDS011;42419;48.760;2.322;2023-03-23T06:19:23;2.27;;;1.13;;
56517;SDS011;42419;48.760;2.322;2023-03-23T06:21:51;1.87;;;1.00;;
56517;SDS011;42419;48.760;2.322;2023-03-23T06:24:17;1.30;;;1.10;;
56517;SDS011;42419;48.760;2.322;2023-03-23T06:26:42;2.50;;;1.50;;
56517;SDS011;42419;48.760;2.322;2023-03-23T06:29:09;1.40;;;1.00;;
56517;SDS011;42419;48.760;2.322;2023-03-23T06:31:41;1.67;;;1.20;;
56517;SDS011;42419;48.760;2.322;2023-03-23T06:34:10;2.77;;;1.20;;
56517;SDS011;42419;48.760;2.322;2023-03-23T06:36:36;5.00;;;1.40;;
56517;SDS011;42419;48.760;2.322;2023-03-23T06:39:03;2.17;;;1.50;;
56517;SDS011;42419;48.760;2.322;2023-03-23T06:41:29;1.67;;;1.30;;
56517;SDS011;42419;48.760;2.322;2023-03-23T06:43:58;1.53;;;1.20;;
56517;SDS011;42419;48.760;2.322;2023-03-23T06:46:24;1.40;;;1.07;;
56517;SDS011;42419;48.760;2.322;2023-03-23T06:48:50;1.27;;;1.00;;
56517;SDS011;42419;48.760;2.322;2023-03-23T06:51:16;2.83;;;1.43;;
56517;SDS011;42419;48.760;2.322;2023-03-23T06:53:42;1.80;;;1.20;;
56517;SDS011;42419;48.760;2.322;2023-03-23T06:56:08;1.40;;;1.00;;
56517;SDS011;42419;48.760;2.322;2023-03-23T06:58:33;1.43;;;1.10;;
56517;SDS011;42419;48.760;2.322;2023-03-23T07:00:59;1.53;;;1.23;;
56517;SDS011;42419;48.760;2.322;2023-03-23T07:03:25;1.93;;;1.10;;
56517;SDS011;42419;48.760;2.322;2023-03-23T07:05:52;1.40;;;1.10;;
56517;SDS011;42419;48.760;2.322;2023-03-23T07:08:18;1.50;;;1.20;;
56517;SDS011;42419;48.760;2.322;2023-03-23T07:10:43;1.40;;;0.90;;
56517;SDS011;42419;48.760;2.322;2023-03-23T07:13:08;1.90;;;1.40;;
56517;SDS011;42419;48.760;2.322;2023-03-23T07:15:34;2.13;;;1.20;;
56517;SDS011;42419;48.760;2.322;2023-03-23T07:17:59;1.57;;;1.23;;
56517;SDS011;42419;48.760;2.322;2023-03-23T07:20:25;1.20;;;1.10;;
56517;SDS011;42419;48.760;2.322;2023-03-23T07:22:53;1.60;;;1.20;;
56517;SDS011;42419;48.760;2.322;2023-03-23T07:25:18;1.43;;;1.33;;
56517;SDS011;42419;48.760;2.322;2023-03-23T07:27:44;3.40;;;1.30;;
56517;SDS011;42419;48.760;2.322;2023-03-23T07:30:11;1.47;;;1.37;;
56517;SDS011;42419;48.760;2.322;2023-03-23T07:32:37;1.60;;;1.10;;
56517;SDS011;42419;48.760;2.322;2023-03-23T07:35:02;1.70;;;1.50;;
56517;SDS011;42419;48.760;2.322;2023-03-23T07:37:28;1.40;;;1.27;;
56517;SDS011;42419;48.760;2.322;2023-03-23T07:39:55;2.13;;;1.40;;
56517;SDS011;42419;48.760;2.322;2023-03-23T07:42:20;1.67;;;1.20;;
56517;SDS011;42419;48.760;2.322;2023-03-23T07:44:46;1.30;;;1.20;;
56517;SDS011;42419;48.760;2.322;2023-03-23T07:47:11;1.47;;;1.20;;
56517;SDS011;42419;48.760;2.322;2023-03-23T07:49:36;1.20;;;1.10;;
56517;SDS011;42419;48.760;2.322;2023-03-23T07:52:02;2.37;;;1.30;;
56517;SDS011;42419;48.760;2.322;2023-03-23T07:54:27;2.50;;;1.37;;
56517;SDS011;42419;48.760;2.322;2023-03-23T07:56:53;3.00;;;1.37;;
56517;SDS011;42419;48.760;2.322;2023-03-23T07:59:18;1.30;;;1.10;;
56517;SDS011;42419;48.760;2.322;2023-03-23T08:01:43;2.23;;;1.40;;
56517;SDS011;42419;48.760;2.322;2023-03-23T08:04:09;3.33;;;1.70;;
56517;SDS011;42419;48.760;2.322;2023-03-23T08:06:34;1.57;;;1.27;;
56517;SDS011;42419;48.760;2.322;2023-03-23T08:09:00;1.80;;;1.27;;
56517;SDS011;42419;48.760;2.322;2023-03-23T08:11:32;2.07;;;1.30;;
56517;SDS011;42419;48.760;2.322;2023-03-23T08:13:58;3.07;;;1.80;;
56517;SDS011;42419;48.760;2.322;2023-03-23T08:16:24;3.10;;;1.50;;
56517;SDS011;42419;48.760;2.322;2023-03-23T08:18:50;2.60;;;1.60;;
56517;SDS011;42419;48.760;2.322;2023-03-23T08:21:15;4.93;;;1.60;;
56517;SDS011;42419;48.760;2.322;2023-03-23T08:23:41;4.10;;;1.60;;
56517;SDS011;42419;48.760;2.322;2023-03-23T08:26:07;4.90;;;1.90;;
56517;SDS011;42419;48.760;2.322;2023-03-23T08:28:34;2.33;;;1.67;;
56517;SDS011;42419;48.760;2.322;2023-03-23T08:31:00;2.63;;;1.50;;
56517;SDS011;42419;48.760;2.322;2023-03-23T08:33:35;2.70;;;1.50;;
56517;SDS011;42419;48.760;2.322;2023-03-23T08:36:01;2.33;;;1.60;;
56517;SDS011;42419;48.760;2.322;2023-03-23T08:38:28;3.10;;;1.90;;
56517;SDS011;42419;48.760;2.322;2023-03-23T08:40:57;6.70;;;1.70;;
56517;SDS011;42419;48.760;2.322;2023-03-23T08:43:27;4.67;;;1.70;;
56517;SDS011;42419;48.760;2.322;2023-03-23T08:45:53;3.43;;;1.77;;
56517;SDS011;42419;48.760;2.322;2023-03-23T08:48:18;4.43;;;1.40;;
56517;SDS011;42419;48.760;2.322;2023-03-23T08:50:44;2.30;;;1.40;;
56517;SDS011;42419;48.760;2.322;2023-03-23T08:53:09;2.63;;;1.37;;
56517;SDS011;42419;48.760;2.322;2023-03-23T08:55:35;4.00;;;1.97;;
56517;SDS011;42419;48.760;2.322;2023-03-23T08:58:04;3.60;;;1.70;;
56517;SDS011;42419;48.760;2.322;2023-03-23T09:00:30;5.10;;;1.87;;
56517;SDS011;42419;48.760;2.322;2023-03-23T09:02:56;3.50;;;1.80;;
56517;SDS011;42419;48.760;2.322;2023-03-23T09:05:22;3.73;;;1.60;;
56517;SDS011;42419;48.760;2.322;2023-03-23T09:07:50;3.37;;;1.57;;
56517;SDS011;42419;48.760;2.322;2023-03-23T09:10:17;1.80;;;1.33;;
56517;SDS011;42419;48.760;2.322;2023-03-23T09:12:43;4.30;;;2.00;;
56517;SDS011;42419;48.760;2.322;2023-03-23T09:15:11;2.33;;;1.60;;
56517;SDS011;42419;48.760;2.322;2023-03-23T09:17:40;5.00;;;1.90;;
56517;SDS011;42419;48.760;2.322;2023-03-23T09:20:08;9.57;;;2.60;;
56517;SDS011;42419;48.760;2.322;2023-03-23T09:22:38;5.73;;;2.00;;
56517;SDS011;42419;48.760;2.322;2023-03-23T09:25:16;3.73;;;2.23;;
56517;SDS011;42419;48.760;2.322;2023-03-23T09:27:48;8.03;;;2.27;;
56517;SDS011;42419;48.760;2.322;2023-03-23T09:30:18;4.80;;;1.90;;
56517;SDS011;42419;48.760;2.322;2023-03-23T09:32:44;6.33;;;2.23;;
56517;SDS011;42419;48.760;2.322;2023-03-23T09:35:10;4.27;;;2.27;;
56517;SDS011;42419;48.760;2.322;2023-03-23T09:37:38;7.13;;;2.30;;
56517;SDS011;42419;48.760;2.322;2023-03-23T09:40:05;5.90;;;2.40;;
56517;SDS011;42419;48.760;2.322;2023-03-23T09:42:42;4.43;;;1.97;;
56517;SDS011;42419;48.760;2.322;2023-03-23T09:52:55;4.27;;;2.00;;
56517;SDS011;42419;48.760;2.322;2023-03-23T09:55:23;5.13;;;2.60;;
56517;SDS011;42419;48.760;2.322;2023-03-23T10:00:36;2.33;;;1.77;;
56517;SDS011;42419;48.760;2.322;2023-03-23T10:06:14;3.60;;;1.90;;
56517;SDS011;42419;48.760;2.322;2023-03-23T10:08:34;2.77;;;2.00;;
56517;SDS011;42419;48.760;2.322;2023-03-23T10:11:03;3.80;;;1.90;;
56517;SDS011;42419;48.760;2.322;2023-03-23T10:16:38;4.67;;;1.90;;
56517;SDS011;42419;48.760;2.322;2023-03-23T10:22:10;3.00;;;1.67;;
56517;SDS011;42419;48.760;2.322;2023-03-23T10:24:43;3.93;;;1.77;;
56517;SDS011;42419;48.760;2.322;2023-03-23T10:30:15;6.80;;;1.90;;
56517;SDS011;42419;48.760;2.322;2023-03-23T10:32:47;1.93;;;1.73;;
56517;SDS011;42419;48.760;2.322;2023-03-23T10:35:19;2.10;;;1.50;;
56517;SDS011;42419;48.760;2.322;2023-03-23T10:37:52;2.20;;;1.37;;
56517;SDS011;42419;48.760;2.322;2023-03-23T10:40:25;2.80;;;1.90;;
56517;SDS011;42419;48.760;2.322;2023-03-23T10:42:53;5.50;;;1.83;;
56517;SDS011;42419;48.760;2.322;2023-03-23T10:45:27;2.07;;;1.57;;
56517;SDS011;42419;48.760;2.322;2023-03-23T10:50:32;6.00;;;2.27;;
56517;SDS011;42419;48.760;2.322;2023-03-23T10:53:00;4.00;;;2.27;;
56517;SDS011;42419;48.760;2.322;2023-03-23T10:55:35;6.20;;;2.00;;
56517;SDS011;42419;48.760;2.322;2023-03-23T10:58:06;3.20;;;1.97;;
56517;SDS011;42419;48.760;2.322;2023-03-23T11:00:39;3.63;;;1.80;;
56517;SDS011;42419;48.760;2.322;2023-03-23T11:05:44;2.57;;;1.70;;
56517;SDS011;42419;48.760;2.322;2023-03-23T11:08:15;3.83;;;2.10;;
56517;SDS011;42419;48.760;2.322;2023-03-23T11:10:51;3.30;;;1.70;;
56517;SDS011;42419;48.760;2.322;2023-03-23T11:13:19;3.80;;;2.20;;
56517;SDS011;42419;48.760;2.322;2023-03-23T11:15:46;5.50;;;1.80;;
56517;SDS011;42419;48.760;2.322;2023-03-23T11:18:18;2.87;;;1.77;;
56517;SDS011;42419;48.760;2.322;2023-03-23T11:21:04;3.20;;;1.60;;
56517;SDS011;42419;48.760;2.322;2023-03-23T11:23:38;3.80;;;2.00;;
56517;SDS011;42419;48.760;2.322;2023-03-23T11:29:10;1.70;;;1.60;;
56517;SDS011;42419;48.760;2.322;2023-03-23T11:34:26;2.70;;;1.70;;
56517;SDS011;42419;48.760;2.322;2023-03-23T11:37:00;2.27;;;1.47;;
56517;SDS011;42419;48.760;2.322;2023-03-23T11:39:46;2.40;;;1.77;;
56517;SDS011;42419;48.760;2.322;2023-03-23T11:42:12;4.17;;;1.80;;
56517;SDS011;42419;48.760;2.322;2023-03-23T11:47:41;2.10;;;1.70;;
56517;SDS011;42419;48.760;2.322;2023-03-23T11:50:30;4.30;;;2.20;;
56517;SDS011;42419;48.760;2.322;2023-03-23T11:58:14;4.90;;;2.20;;
56517;SDS011;42419;48.760;2.322;2023-03-23T12:00:45;4.10;;;2.20;;
56517;SDS011;42419;48.760;2.322;2023-03-23T12:03:31;5.30;;;1.67;;
56517;SDS011;42419;48.760;2.322;2023-03-23T12:23:57;3.20;;;1.93;;
56517;SDS011;42419;48.760;2.322;2023-03-23T12:26:32;2.53;;;2.20;;
56517;SDS011;42419;48.760;2.322;2023-03-23T12:31:54;4.67;;;2.37;;
56517;SDS011;42419;48.760;2.322;2023-03-23T12:34:40;2.50;;;1.77;;
56517;SDS011;42419;48.760;2.322;2023-03-23T12:39:47;3.87;;;2.33;;
56517;SDS011;42419;48.760;2.322;2023-03-23T12:48:11;2.47;;;1.97;;
56517;SDS011;42419;48.760;2.322;2023-03-23T12:51:00;3.53;;;2.07;;
56517;SDS011;42419;48.760;2.322;2023-03-23T12:53:52;3.63;;;2.10;;
56517;SDS011;42419;48.760;2.322;2023-03-23T12:56:31;2.10;;;1.80;;
56517;SDS011;42419;48.760;2.322;2023-03-23T12:59:16;3.30;;;2.27;;
56517;SDS011;42419;48.760;2.322;2023-03-23T13:01:45;4.23;;;2.03;;
56517;SDS011;42419;48.760;2.322;2023-03-23T13:06:46;5.90;;;2.03;;
56517;SDS011;42419;48.760;2.322;2023-03-23T13:11:41;6.87;;;2.40;;
56517;SDS011;42419;48.760;2.322;2023-03-23T13:14:21;3.60;;;2.30;;
56517;SDS011;42419;48.760;2.322;2023-03-23T13:17:16;4.23;;;2.50;;
56517;SDS011;42419;48.760;2.322;2023-03-23T13:24:49;2.47;;;1.80;;
56517;SDS011;42419;48.760;2.322;2023-03-23T13:27:22;3.57;;;2.20;;
56517;SDS011;42419;48.760;2.322;2023-03-23T13:29:50;7.67;;;2.73;;
56517;SDS011;42419;48.760;2.322;2023-03-23T13:32:17;5.10;;;2.50;;
56517;SDS011;42419;48.760;2.322;2023-03-23T13:34:43;5.33;;;2.70;;
56517;SDS011;42419;48.760;2.322;2023-03-23T13:39:55;4.60;;;2.40;;
56517;SDS011;42419;48.760;2.322;2023-03-23T13:42:25;3.70;;;2.40;;
56517;SDS011;42419;48.760;2.322;2023-03-23T13:49:50;5.50;;;2.50;;
56517;SDS011;42419;48.760;2.322;2023-03-23T13:52:37;5.37;;;2.00;;
56517;SDS011;42419;48.760;2.322;2023-03-23T14:03:13;6.13;;;2.70;;
56517;SDS011;42419;48.760;2.322;2023-03-23T14:13:25;6.10;;;2.40;;
56517;SDS011;42419;48.760;2.322;2023-03-23T14:15:58;4.27;;;2.00;;
56517;SDS011;42419;48.760;2.322;2023-03-23T14:18:30;3.90;;;2.10;;
56517;SDS011;42419;48.760;2.322;2023-03-23T14:21:00;4.70;;;2.10;;
56517;SDS011;42419;48.760;2.322;2023-03-23T14:23:26;5.97;;;2.50;;
56517;SDS011;42419;48.760;2.322;2023-03-23T14:25:56;3.37;;;2.13;;
56517;SDS011;42419;48.760;2.322;2023-03-23T14:28:30;3.37;;;1.90;;
56517;SDS011;42419;48.760;2.322;2023-03-23T14:30:57;3.40;;;2.37;;
56517;SDS011;42419;48.760;2.322;2023-03-23T14:33:24;6.70;;;2.53;;
56517;SDS011;42419;48.760;2.322;2023-03-23T14:35:51;4.40;;;2.23;;
56517;SDS011;42419;48.760;2.322;2023-03-23T14:38:21;5.00;;;2.13;;
56517;SDS011;42419;48.760;2.322;2023-03-23T14:40:49;2.87;;;1.90;;
56517;SDS011;42419;48.760;2.322;2023-03-23T14:43:17;2.40;;;1.97;;
56517;SDS011;42419;48.760;2.322;2023-03-23T14:45:49;4.77;;;2.20;;
56517;SDS011;42419;48.760;2.322;2023-03-23T14:48:17;3.37;;;2.03;;
56517;SDS011;42419;48.760;2.322;2023-03-23T14:50:48;2.80;;;2.10;;
56517;SDS011;42419;48.760;2.322;2023-03-23T14:53:24;3.70;;;1.93;;
56517;SDS011;42419;48.760;2.322;2023-03-23T14:55:59;7.47;;;2.20;;
56517;SDS011;42419;48.760;2.322;2023-03-23T14:58:27;4.83;;;2.67;;
56517;SDS011;42419;48.760;2.322;2023-03-23T15:03:21;5.00;;;2.10;;
56517;SDS011;42419;48.760;2.322;2023-03-23T15:05:53;2.70;;;2.00;;
56517;SDS011;42419;48.760;2.322;2023-03-23T15:08:30;3.17;;;2.00;;
56517;SDS011;42419;48.760;2.322;2023-03-23T15:11:05;5.40;;;2.40;;
56517;SDS011;42419;48.760;2.322;2023-03-23T15:13:36;4.17;;;2.30;;
56517;SDS011;42419;48.760;2.322;2023-03-23T15:16:03;3.00;;;2.10;;
56517;SDS011;42419;48.760;2.322;2023-03-23T15:18:33;2.90;;;2.40;;
56517;SDS011;42419;48.760;2.322;2023-03-23T15:21:07;6.53;;;2.33;;
56517;SDS011;42419;48.760;2.322;2023-03-23T15:23:59;3.40;;;2.13;;
56517;SDS011;42419;48.760;2.322;2023-03-23T15:26:30;3.70;;;2.33;;
56517;SDS011;42419;48.760;2.322;2023-03-23T15:29:08;3.00;;;2.33;;
56517;SDS011;42419;48.760;2.322;2023-03-23T15:31:39;3.33;;;2.10;;
56517;SDS011;42419;48.760;2.322;2023-03-23T15:34:10;3.03;;;2.20;;
56517;SDS011;42419;48.760;2.322;2023-03-23T15:36:39;6.40;;;3.03;;
56517;SDS011;42419;48.760;2.322;2023-03-23T15:39:05;3.60;;;2.57;;
56517;SDS011;42419;48.760;2.322;2023-03-23T15:41:31;3.90;;;2.83;;
56517;SDS011;42419;48.760;2.322;2023-03-23T15:44:09;5.50;;;3.97;;
56517;SDS011;42419;48.760;2.322;2023-03-23T15:46:38;5.80;;;3.97;;
56517;SDS011;42419;48.760;2.322;2023-03-23T15:49:13;6.40;;;4.47;;
56517;SDS011;42419;48.760;2.322;2023-03-23T15:51:40;8.60;;;5.13;;
56517;SDS011;42419;48.760;2.322;2023-03-23T15:54:07;8.07;;;5.73;;
56517;SDS011;42419;48.760;2.322;2023-03-23T15:56:37;8.53;;;5.60;;
56517;SDS011;42419;48.760;2.322;2023-03-23T15:59:02;8.90;;;6.50;;
56517;SDS011;42419;48.760;2.322;2023-03-23T16:01:28;8.80;;;6.70;;
56517;SDS011;42419;48.760;2.322;2023-03-23T16:03:56;12.17;;;7.00;;
56517;SDS011;42419;48.760;2.322;2023-03-23T16:06:24;11.60;;;7.87;;
56517;SDS011;42419;48.760;2.322;2023-03-23T16:08:54;9.70;;;7.23;;
56517;SDS011;42419;48.760;2.322;2023-03-23T16:11:21;12.13;;;7.63;;
56517;SDS011;42419;48.760;2.322;2023-03-23T16:13:47;9.70;;;8.07;;
56517;SDS011;42419;48.760;2.322;2023-03-23T16:16:16;11.53;;;8.13;;
56517;SDS011;42419;48.760;2.322;2023-03-23T16:18:51;9.77;;;8.43;;
56517;SDS011;42419;48.760;2.322;2023-03-23T16:21:16;10.57;;;7.93;;
56517;SDS011;42419;48.760;2.322;2023-03-23T16:23:41;11.63;;;8.27;;
56517;SDS011;42419;48.760;2.322;2023-03-23T16:26:10;12.93;;;8.73;;
56517;SDS011;42419;48.760;2.322;2023-03-23T16:28:36;10.47;;;7.93;;
56517;SDS011;42419;48.760;2.322;2023-03-23T16:31:01;13.17;;;8.53;;
56517;SDS011;42419;48.760;2.322;2023-03-23T16:33:27;12.60;;;8.40;;
56517;SDS011;42419;48.760;2.322;2023-03-23T16:35:52;14.53;;;9.50;;
56517;SDS011;42419;48.760;2.322;2023-03-23T16:38:17;11.80;;;8.47;;
56517;SDS011;42419;48.760;2.322;2023-03-23T16:40:43;12.03;;;8.40;;
56517;SDS011;42419;48.760;2.322;2023-03-23T16:43:09;13.37;;;9.30;;
56517;SDS011;42419;48.760;2.322;2023-03-23T16:45:36;11.53;;;8.43;;
56517;SDS011;42419;48.760;2.322;2023-03-23T16:48:04;10.37;;;8.00;;
56517;SDS011;42419;48.760;2.322;2023-03-23T16:50:30;13.80;;;8.50;;
56517;SDS011;42419;48.760;2.322;2023-03-23T16:52:55;10.13;;;8.00;;
56517;SDS011;42419;48.760;2.322;2023-03-23T16:55:21;10.40;;;8.00;;